• Join FlightAware (Why Join?)
  • Login
  • US Flag 
03:10PM EDT


 

Airport Tracker/Info


-or-


 

Live Flight TrackerFlight Track Log ✈ N244A ✈ 06-Sep-2013 ✈ KPWK - KEGE

Flight Track Log - Related Links

Times and Time Zones

All times are in EDT time to prevent confusion due to time zone crossing. See the N244A flight status page for this flight to view local times or setup timezone preferences in your user account.

Time Position Orientation Groundspeed Altitude Reporting Facility
EDT Latitude Longitude Course Direction KTS MPH feet Rate Location/Type
06:30PM 41.5387 -95.3648 267° West  Level Estimated
06:31PM 41.5233 -95.5043 262° West  Level Estimated
06:32PM 41.5076 -95.6436 262° West  Level Estimated
06:33PM 41.4918 -95.7829 261° West  Level Estimated
06:34PM 41.4758 -95.9222 261° West  Level Estimated
06:35PM 41.4597 -96.0613 261° West  Level Estimated
06:36PM 41.4433 -96.2004 261° West  Level Estimated
06:37PM 41.4268 -96.3395 261° West  Level Estimated
06:38PM 41.4102 -96.4784 261° West  Level Estimated
06:39PM 41.3934 -96.6173 261° West  Level Estimated
06:40PM 41.3764 -96.7561 261° West  Level Estimated
06:40PM 41.0186 -96.9097 260° West 466 536 38,000  Level Minneapolis Center
06:41PM 41.3592 -96.8949 261° West  Level Estimated
06:41PM 40.9958 -97.0786 260° West 467 537 38,000  Level Minneapolis Center
06:42PM 41.3419 -97.0335 261° West  Level Estimated
06:42PM 40.9769 -97.2483 262° West 466 536 38,000  Level Minneapolis Center
06:43PM 41.3227 -97.1854 261° West  Level Estimated
06:43PM 40.9539 -97.4267 260° West 468 539 38,000  Level Minneapolis Center
06:44PM 41.3033 -97.3372 260° West  Level Estimated
06:44PM 40.9319 -97.5964 260° West 469 540 38,000  Level Minneapolis Center
06:45PM 41.2838 -97.4890 260° West  Level Estimated
06:45PM 40.9114 -97.7661 261° West 468 539 38,000  Level Minneapolis Center
06:46PM 40.8872 -97.9358 259° West 469 540 38,000  Level Minneapolis Center
06:47PM 40.8600 -98.1400 260° West 469 540 38,000  Level Minneapolis Center
06:49PM 40.8369 -98.3092 260° West 468 539 38,000  Level Minneapolis Center
06:50PM 40.8119 -98.5003 260° West 467 537 38,000  Level Minneapolis Center
06:51PM 40.7872 -98.6678 259° West 466 536 38,000  Level Minneapolis Center
06:52PM 40.7589 -98.8697 260° West 467 537 38,000  Level Minneapolis Center
06:53PM 40.7350 -99.0550 260° West 464 534 38,000  Level Minneapolis Center
06:54PM 40.7111 -99.2225 259° West 463 533 38,000  Level Denver Center
06:55PM 40.6858 -99.3897 259° West 464 534 38,000  Level Denver Center
06:56PM 40.6619 -99.5561 259° West 462 532 38,000  Level Denver Center
06:57PM 40.6333 -99.7547 259° West 459 528 38,000  Level Denver Center
06:58PM 40.6086 -99.9186 259° West 458 527 38,000  Level Denver Center
06:59PM 40.5853 -100.0764 259° West 459 528 38,000  Level Denver Center
06:59PM 40.5853 -100.0764 259° West 459 528 38,000  Level Denver Center
06:59PM 40.5853 -100.0764 259° West 459 528 38,000  Level Denver Center
06:59PM 40.5853 -100.0764 259° West 459 528 38,000  Level Denver Center
07:00PM 40.5550 -100.2586 258° West 455 524 38,000  Level Denver Center
07:01PM 40.5319 -100.4161 259° West 456 525 38,000  Level Denver Center
07:02PM 40.5081 -100.5728 259° West 456 525 38,000  Level Denver Center
07:03PM 40.4775 -100.7564 258° West 457 526 38,000  Level Denver Center
07:04PM 40.4544 -100.9144 259° West 458 527 38,000  Level Denver Center
07:05PM 40.4292 -101.0978 260° West 454 522 38,000  Level Denver Center
07:06PM 40.4114 -101.2572 262° West 458 527 38,000  Level Denver Center
07:07PM 40.3897 -101.4150 260° West 459 528 38,000  Level Denver Center
07:08PM 40.3683 -101.6028 262° West 465 535 38,000  Level Denver Center
07:10PM 40.3478 -101.7597 260° West 459 528 38,000  Level Denver Center
07:11PM 40.3225 -101.9447 260° West 462 532 38,000 -60 Level Denver Center
07:12PM 40.3017 -102.1039 260° West 462 532 37,900 -360 Descending Denver Center
07:13PM 40.2769 -102.2903 260° West 465 535 37,300 -720 Descending Denver Center
07:14PM 40.2558 -102.4522 260° West 471 542 36,500 -660 Descending Denver Center
07:15PM 40.2303 -102.6403 260° West 470 541 36,000 -300 Descending Denver Center
07:16PM 40.2067 -102.8078 260° West 471 542 36,000  Level Denver Center
07:17PM 40.1828 -102.9750 259° West 469 540 36,000  Level Denver Center
07:18PM 40.1606 -103.1453 260° West 475 547 36,000  Level Denver Center
07:19PM 40.1414 -103.3147 262° West 473 544 36,000  Level Denver Center
07:20PM 40.1344 -103.4864 267° West 474 545 36,000  Level Denver Center
07:21PM 40.1192 -103.6917 265° West 475 547 36,000  Level Denver Center
07:22PM 40.1067 -103.8650 265° West 481 554 36,000  Level Denver Center
07:23PM 40.0947 -104.0331 265° West 470 541 36,000 -480 Level Denver Center
07:24PM 40.0819 -104.2014 264° West 467 537 35,100 -1,560 Descending Denver Center
07:25PM 40.0681 -104.3686 264° West 468 539 32,800 -2,100 Descending Denver Center
07:26PM 40.0525 -104.5700 264° West 466 536 30,800 -1,380 Descending Denver Center
07:27PM 40.0397 -104.7344 264° West 459 528 30,000 -420 Descending Denver Center
07:28PM 40.0311 -104.8944 266° West 449 517 30,000 -360 Level Denver Center
07:29PM 40.0331 -105.0594 271° West 452 520 29,300 -1,260 Descending Denver Center
07:30PM 40.0297 -105.2172 268° West 441 507 27,400 -1,680 Descending Denver Center
07:31PM 40.0242 -105.4058 268° West 433 498 25,900 -1,620 Descending Denver Center
07:32PM 40.0244 -105.5489 270° West 400 460 24,100 -960 Descending Denver Center
07:33PM 40.0086 -105.6886 262° West 368 423 24,000 -60 Descending Denver Center
07:34PM 39.9750 -105.8019 249° West 337 388 24,000 -600 Level Denver Center
07:35PM 39.9494 -105.9003 251° West 308 354 22,800 -1,740 Descending Denver Center
07:36PM 39.9214 -106.0131 252° West 324 373 20,500 -2,460 Descending Denver Center
07:37PM 39.8864 -106.1536 252° West 339 390 17,800 -1,980 Descending Denver Center
07:38PM 39.8608 -106.2511 251° West 336 387 16,500 -900 Descending Denver Center
07:39PM 39.8275 -106.3806 252° West 322 371 16,000 -300 Descending Denver Center
07:40PM 39.8061 -106.4600 251° West 248 285 16,000 -480 Level Denver Center
07:42PM 39.7844 -106.5292 248° West 216 249 15,100 -480 Descending Denver Center
07:43PM 39.7339 -106.5539 201° Southwest 194 223 15,100 -360 Level Denver Center
07:44PM 39.6775 -106.5869 204° Southwest 228 262 14,400 -900 Descending Denver Center
07:45PM 39.6828 -106.6586 275° West 205 236 13,300 -1,440 Descending Denver Center
07:46PM 39.6733 -106.7114 257° West 158 182 11,500 -1,740 Descending Denver Center
07:47PM 39.6642 -106.7661 258° West 154 177 9,700 -1,500 Descending Denver Center
07:48PM 39.6572 -106.8319 262° West 154 177 8,400 -1,020 Descending Denver Center
07:49PM 39.6461 -106.8856 255° West 154 177 7,700 -420 Descending Denver Center
07:50PM 39.6258 -106.9267 237° Southwest 155 178 7,600 -540 Descending Denver Center
07:51PM 39.6383 -106.9508 304° West 138 159 6,600 -1,020 Descending Denver Center
07:53PM 39.6427 -106.9159 38° Northeast  Level Estimated